This is the latest recevied weather packets stored in our database for station/object EA7OC-10. If no packets are shown the sender has not sent any weather packets the latest 10 day(s).
| Time | Temp. | Humidity | Pressure | Rain* | Wind** | Luminosity | Snow |
|---|---|---|---|---|---|---|---|
| 1788093466 | 41.11° C | 24% | 1017.5 hPa | - | - | - | - |
| 1788092566 | 41.11° C | 24% | 1017.6 hPa | - | - | - | - |
| 1788091665 | 41.11° C | 25% | 1017.8 hPa | - | - | - | - |
| 1788090765 | 40.56° C | 24% | 1018 hPa | - | - | - | - |
| 1788089865 | 41.11° C | 24% | 1018.2 hPa | - | - | - | - |
| 1788088965 | 40.56° C | 25% | 1018.4 hPa | - | - | - | - |
| 1788088065 | 39.44° C | 25% | 1018.4 hPa | - | - | - | - |
| 1788087165 | 38.89° C | 25% | 1018.6 hPa | - | - | - | - |
| 1788086265 | 37.22° C | 26% | 1018.6 hPa | - | - | - | - |
| 1788085365 | 36.67° C | 24% | 1018.8 hPa | - | - | - | - |
| 1788084464 | 37.78° C | 24% | 1018.9 hPa | - | - | - | - |
| 1788083564 | 37.22° C | 25% | 1018.8 hPa | - | - | - | - |
| 1788082664 | 37.22° C | 25% | 1018.9 hPa | - | - | - | - |
| 1788081764 | 36.67° C | 25% | 1018.9 hPa | - | - | - | - |
| 1788080864 | 36.11° C | 25% | 1018.9 hPa | - | - | - | - |
| 1788079964 | 35.56° C | 25% | 1018.9 hPa | - | - | - | - |
| 1788079064 | 34.44° C | 25% | 1018.8 hPa | - | - | - | - |
| 1788078164 | 33.89° C | 25% | 1018.8 hPa | - | - | - | - |
| 1788077264 | 33.89° C | 25% | 1018.9 hPa | - | - | - | - |
| 1788076363 | 33.33° C | 26% | 1018.8 hPa | - | - | - | - |
| 1788075463 | 32.22° C | 26% | 1018.8 hPa | - | - | - | - |
| 1788074563 | 31.67° C | 26% | 1018.7 hPa | - | - | - | - |
| 1788073663 | 30° C | 27% | 1018.6 hPa | - | - | - | - |
| 1788072763 | 26.67° C | 28% | 1018.5 hPa | - | - | - | - |
| 1788071863 | 23.89° C | 28% | 1018.5 hPa | - | - | - | - |
* Rain since midnight (hover to see other rain measurements)
** Current wind speed in m/s (hover to see current wind gust speed)